createdAt,value
2022-09-30T00:02:01.256Z,99157.50
2022-09-30T00:06:08.871Z,99155.91
2022-09-30T00:10:11.038Z,99160.78
2022-09-30T00:14:18.994Z,99175.47
2022-09-30T00:18:20.802Z,99177.22
2022-09-30T00:22:22.625Z,99172.69
2022-09-30T00:26:24.747Z,99179.28
2022-09-30T00:30:26.612Z,99162.19
2022-09-30T00:34:28.349Z,99167.88
2022-09-30T00:38:30.143Z,99180.41
2022-09-30T00:42:31.941Z,99196.06
2022-09-30T00:46:42.270Z,99193.16
2022-09-30T00:50:48.840Z,99206.47
2022-09-30T00:54:51.325Z,99202.31
2022-09-30T00:59:27.629Z,99203.59
2022-09-30T01:03:37.572Z,99207.19
2022-09-30T01:07:39.326Z,99203.69
2022-09-30T01:11:41.460Z,99208.66
2022-09-30T01:16:04.193Z,99203.63
2022-09-30T01:20:42.182Z,99201.72
2022-09-30T01:25:14.183Z,99199.09
2022-09-30T01:29:49.370Z,99204.69
2022-09-30T01:34:15.757Z,99206.59
2022-09-30T01:38:45.369Z,99199.91
2022-09-30T01:43:12.854Z,99205.28
2022-09-30T01:47:31.420Z,99206.84
2022-09-30T01:51:54.652Z,99215.78
2022-09-30T01:56:13.866Z,99218.41
2022-09-30T02:00:22.052Z,99215.66
2022-09-30T02:04:48.024Z,99225.59
2022-09-30T02:09:14.138Z,99224.81
2022-09-30T02:13:22.349Z,99230.78
2022-09-30T02:17:36.039Z,99237.34
2022-09-30T02:21:47.048Z,99240.91
2022-09-30T02:26:06.999Z,99229.53
2022-09-30T02:30:12.595Z,99247.66
2022-09-30T02:34:24.032Z,99254.19
2022-09-30T02:38:37.546Z,99258.59
2022-09-30T02:42:39.420Z,99247.09
2022-09-30T02:46:57.460Z,99235.31
2022-09-30T02:51:04.023Z,99237.22
2022-09-30T02:55:13.113Z,99249.16
2022-09-30T02:59:14.967Z,99255.31
2022-09-30T03:03:40.982Z,99242.44
2022-09-30T03:07:42.781Z,99246.22
2022-09-30T03:11:44.776Z,99251.00
2022-09-30T03:16:05.740Z,99252.91
2022-09-30T03:20:19.888Z,99253.88
2022-09-30T03:25:18.189Z,99268.91
2022-09-30T03:29:35.171Z,99273.59
2022-09-30T03:33:50.529Z,99279.53
2022-09-30T03:38:30.445Z,99296.19
2022-09-30T03:42:58.115Z,99290.16
2022-09-30T03:47:10.671Z,99288.09
2022-09-30T03:51:13.502Z,99290.25
2022-09-30T03:55:15.738Z,99284.19
2022-09-30T03:59:25.657Z,99284.69
2022-09-30T04:03:28.547Z,99284.09
2022-09-30T04:07:30.521Z,99292.19
2022-09-30T04:11:32.366Z,99291.19
2022-09-30T04:15:36.375Z,99300.19
2022-09-30T04:19:40.303Z,99309.88
2022-09-30T04:23:42.686Z,99296.19
2022-09-30T04:27:46.651Z,99304.31
2022-09-30T04:31:48.571Z,99310.78
2022-09-30T04:35:55.238Z,99320.75
2022-09-30T04:39:57.146Z,99320.50
2022-09-30T04:43:59.118Z,99335.69
2022-09-30T04:48:01.258Z,99350.28
2022-09-30T04:52:23.847Z,99351.56
2022-09-30T04:56:26.979Z,99346.81
2022-09-30T05:00:28.861Z,99358.28
2022-09-30T05:04:33.524Z,99349.13
2022-09-30T05:08:35.652Z,99362.63
2022-09-30T05:12:41.297Z,99365.50
2022-09-30T05:17:13.399Z,99359.78
2022-09-30T05:21:39.135Z,99390.91
2022-09-30T05:26:32.417Z,99391.72
2022-09-30T05:30:34.537Z,99401.19
2022-09-30T05:47:52.271Z,99412.72
2022-09-30T05:58:17.880Z,99421.06
2022-09-30T06:02:20.273Z,99412.03
2022-09-30T06:06:26.952Z,99421.91
2022-09-30T06:10:29.204Z,99417.47
2022-09-30T06:14:34.747Z,99416.78
2022-09-30T06:23:08.167Z,99430.38
2022-09-30T06:27:31.558Z,99426.53
2022-09-30T06:31:33.539Z,99430.41
2022-09-30T06:35:41.465Z,99426.38
2022-09-30T06:39:43.420Z,99413.34
2022-09-30T06:44:02.922Z,99417.78
2022-09-30T07:02:45.414Z,99425.19
2022-09-30T07:11:26.773Z,99437.41
2022-09-30T07:15:31.609Z,99443.19
2022-09-30T08:36:06.810Z,99481.59
2022-09-30T08:40:21.966Z,99481.50
2022-09-30T08:44:38.772Z,99459.50
2022-09-30T08:49:09.018Z,99474.88
2022-09-30T08:53:26.619Z,99470.72
2022-09-30T09:04:34.802Z,99468.75
2022-09-30T09:15:04.902Z,99490.13
2022-09-30T09:19:12.713Z,99483.97
2022-09-30T09:23:14.733Z,99484.59
2022-09-30T09:31:32.692Z,99482.59
2022-09-30T09:35:54.823Z,99483.84
2022-09-30T09:55:27.373Z,99489.81
2022-09-30T10:10:27.504Z,99464.41
2022-09-30T10:15:19.162Z,99465.59
2022-09-30T10:26:07.413Z,99465.81
2022-09-30T11:57:14.701Z,99433.13
2022-09-30T12:02:33.797Z,99437.19
2022-09-30T12:06:57.005Z,99442.38
2022-09-30T12:11:09.492Z,99443.53
2022-09-30T12:15:18.561Z,99434.16
2022-09-30T12:25:12.134Z,99434.81
2022-09-30T12:29:57.835Z,99425.63
2022-09-30T12:35:01.583Z,99424.03
2022-09-30T12:40:05.200Z,99430.56
2022-09-30T13:37:56.837Z,99435.84
2022-09-30T13:47:48.284Z,99438.25
2022-09-30T15:33:27.688Z,99468.59
2022-09-30T15:37:40.232Z,99456.19
2022-09-30T15:42:53.567Z,99476.28
2022-09-30T15:47:15.438Z,99476.50
2022-09-30T15:56:32.983Z,99481.81
2022-09-30T16:00:39.332Z,99475.28
2022-09-30T16:04:41.435Z,99478.34
2022-09-30T16:09:11.854Z,99477.31
2022-09-30T16:13:36.695Z,99480.56
2022-09-30T16:24:59.778Z,99474.66
2022-09-30T16:29:14.653Z,99479.69
2022-09-30T16:33:28.259Z,99471.13
2022-09-30T16:54:54.256Z,99487.25
2022-09-30T17:00:03.170Z,99516.66
2022-09-30T17:09:41.501Z,99512.59
2022-09-30T17:14:23.288Z,99527.53
2022-09-30T17:19:28.551Z,99531.63
2022-09-30T17:28:22.921Z,99539.94
2022-09-30T17:32:30.688Z,99544.91
2022-09-30T17:37:21.038Z,99547.63
2022-09-30T18:00:07.519Z,99542.66
2022-09-30T18:32:55.423Z,99555.53
2022-09-30T19:05:27.098Z,99564.56
2022-09-30T19:15:16.269Z,99561.41
2022-09-30T19:32:06.681Z,99555.38
2022-09-30T19:52:29.501Z,99548.88
2022-09-30T20:03:01.751Z,99552.34
2022-09-30T20:07:33.756Z,99557.09
2022-09-30T20:21:38.209Z,99562.50
2022-09-30T20:25:41.701Z,99552.34
2022-09-30T20:29:51.211Z,99558.88
2022-09-30T20:34:00.223Z,99557.38
2022-09-30T20:38:06.667Z,99561.47
2022-09-30T20:42:14.029Z,99570.41
2022-09-30T20:46:16.159Z,99567.38
2022-09-30T20:50:35.110Z,99571.25
2022-09-30T20:54:38.307Z,99576.13
2022-09-30T20:58:40.382Z,99585.75
2022-09-30T21:02:42.258Z,99598.34
2022-09-30T21:06:44.207Z,99603.56
2022-09-30T21:10:46.117Z,99597.97
2022-09-30T21:14:48.201Z,99599.44
2022-09-30T21:18:58.584Z,99593.53
2022-09-30T21:23:05.298Z,99596.31
2022-09-30T21:27:08.066Z,99592.50
2022-09-30T21:31:29.006Z,99599.00
2022-09-30T21:35:30.911Z,99607.34
2022-09-30T21:39:32.776Z,99610.06
2022-09-30T21:43:36.510Z,99594.97
2022-09-30T21:47:38.488Z,99602.78
2022-09-30T21:51:40.769Z,99599.03
2022-09-30T21:55:43.242Z,99595.88
2022-09-30T21:59:49.737Z,99592.97
2022-09-30T22:03:52.282Z,99597.13
2022-09-30T22:07:54.187Z,99589.28
2022-09-30T22:11:58.350Z,99585.03
2022-09-30T22:16:05.482Z,99586.19
2022-09-30T22:20:09.458Z,99592.91
2022-09-30T22:24:11.465Z,99585.03
2022-09-30T22:28:13.372Z,99595.94
2022-09-30T22:32:15.349Z,99588.53
2022-09-30T22:36:36.186Z,99591.09
2022-09-30T22:40:38.155Z,99582.09
2022-09-30T22:44:40.045Z,99601.28
2022-09-30T22:48:41.945Z,99607.25
2022-09-30T22:52:43.864Z,99619.91
2022-09-30T22:56:45.945Z,99611.13
2022-09-30T23:00:55.542Z,99614.53
2022-09-30T23:04:59.015Z,99612.38
2022-09-30T23:09:04.298Z,99622.16
2022-09-30T23:13:08.978Z,99613.50
2022-09-30T23:17:13.288Z,99631.25
2022-09-30T23:21:18.445Z,99629.03
2022-09-30T23:25:21.419Z,99609.97
2022-09-30T23:29:23.891Z,99621.84
2022-09-30T23:33:26.691Z,99625.66
2022-09-30T23:37:28.514Z,99634.47
2022-09-30T23:41:31.993Z,99623.34
2022-09-30T23:45:34.204Z,99636.09
2022-09-30T23:49:36.172Z,99624.91
2022-09-30T23:53:38.230Z,99624.91
2022-09-30T23:57:40.220Z,99632.13
